Time;durP1;ratioP1;P1;durP2;ratioP2;P2;SDS_P1;SDS_P2;PMS_P1;PMS_P2;Temp;Humidity;BMP_temperature;BMP_pressure;BME280_temperature;BME280_humidity;BME280_pressure;Samples;Min_cycle;Max_cycle;Signal;HPM_P1;HPM_P2
2022/01/09 00:01:23;;;;;;;7.03;3.00;;;0.80;97.30;;;;;;4997500;28;20232;-81
2022/01/09 00:03:49;;;;;;;7.30;2.93;;;0.70;97.30;;;;;;4998428;28;20409;-81
2022/01/09 00:06:15;;;;;;;3.63;2.30;;;0.70;97.30;;;;;;4997273;28;20523;-82
2022/01/09 00:08:41;;;;;;;5.77;3.03;;;0.70;97.30;;;;;;4997263;28;20721;-81
2022/01/09 00:11:06;;;;;;;6.73;3.10;;;0.70;97.30;;;;;;4997284;28;20577;-80
2022/01/09 00:13:32;;;;;;;4.57;2.70;;;0.70;97.30;;;;;;4996610;28;20181;-81
2022/01/09 00:15:58;;;;;;;11.70;2.77;;;0.70;97.30;;;;;;4997430;28;20178;-80
2022/01/09 00:18:23;;;;;;;2.87;2.17;;;0.70;97.30;;;;;;4997314;28;20184;-81
2022/01/09 00:20:49;;;;;;;4.83;3.00;;;0.70;97.30;;;;;;4997274;28;20602;-81
2022/01/09 00:23:15;;;;;;;5.10;3.00;;;0.70;97.30;;;;;;4998055;28;20261;-82
2022/01/09 00:25:40;;;;;;;9.10;3.10;;;0.80;97.30;;;;;;4998303;28;20246;-81
2022/01/09 00:28:06;;;;;;;8.03;3.70;;;0.80;97.30;;;;;;4998459;28;20184;-81
2022/01/09 00:30:32;;;;;;;7.37;3.97;;;0.80;97.30;;;;;;5003422;28;20192;-81
2022/01/09 00:32:57;;;;;;;7.83;4.10;;;0.80;97.30;;;;;;5011364;28;20181;-81
2022/01/09 00:35:23;;;;;;;6.67;2.90;;;0.80;97.30;;;;;;4995487;28;20185;-82
2022/01/09 00:37:49;;;;;;;7.77;3.00;;;0.90;97.30;;;;;;4996442;28;20174;-81
2022/01/09 00:40:16;;;;;;;4.60;2.50;;;0.90;97.30;;;;;;4995131;28;20202;-81
2022/01/09 00:42:42;;;;;;;5.93;2.60;;;0.90;97.30;;;;;;4998416;28;20460;-80
2022/01/09 00:45:10;;;;;;;3.67;2.70;;;0.90;97.30;;;;;;5016260;28;20851;-81
2022/01/09 00:47:35;;;;;;;7.47;2.80;;;0.90;97.30;;;;;;5002850;28;20483;-81
2022/01/09 00:50:02;;;;;;;5.90;2.87;;;0.90;97.30;;;;;;4997866;28;20417;-81
2022/01/09 00:52:27;;;;;;;6.37;3.10;;;0.90;97.30;;;;;;4996450;28;20293;-81
2022/01/09 00:54:53;;;;;;;5.97;3.40;;;0.90;97.30;;;;;;4997160;28;20460;-82
2022/01/09 00:57:19;;;;;;;3.47;1.90;;;1.00;97.30;;;;;;4996713;28;20548;-82
2022/01/09 00:59:44;;;;;;;3.93;2.33;;;1.00;97.30;;;;;;4996197;28;20213;-80
2022/01/09 01:02:11;;;;;;;6.23;2.13;;;1.10;97.30;;;;;;4995496;28;20543;-80
2022/01/09 01:04:38;;;;;;;3.90;1.80;;;1.20;97.30;;;;;;4995155;28;20182;-81
2022/01/09 01:07:04;;;;;;;3.30;2.00;;;1.30;97.30;;;;;;4996352;28;20424;-81
2022/01/09 01:09:31;;;;;;;4.00;1.97;;;1.50;97.30;;;;;;4995528;28;20425;-81
2022/01/09 01:12:01;;;;;;;3.40;1.73;;;1.60;97.30;;;;;;4994678;28;20531;-80
2022/01/09 01:14:28;;;;;;;2.50;1.70;;;1.70;97.30;;;;;;4996469;28;20419;-81
2022/01/09 01:16:54;;;;;;;3.90;1.93;;;1.70;97.30;;;;;;4995346;28;20432;-81
2022/01/09 01:19:21;;;;;;;4.40;2.20;;;1.70;97.30;;;;;;4994713;28;20468;-81
2022/01/09 01:21:47;;;;;;;3.47;1.70;;;1.70;97.30;;;;;;4995609;28;20422;-81
2022/01/09 01:24:13;;;;;;;5.47;2.17;;;1.70;97.30;;;;;;5006139;28;20431;-81
2022/01/09 01:26:39;;;;;;;3.93;2.00;;;1.80;97.30;;;;;;5010088;28;20413;-81
2022/01/09 01:29:05;;;;;;;2.63;2.23;;;1.80;97.30;;;;;;4994388;28;20178;-81
2022/01/09 01:31:30;;;;;;;5.50;1.70;;;1.80;97.30;;;;;;4994701;28;20433;-80
2022/01/09 01:33:56;;;;;;;5.07;1.67;;;1.80;97.30;;;;;;4994282;28;20177;-80
2022/01/09 01:36:22;;;;;;;2.33;1.80;;;1.80;97.30;;;;;;4995972;28;20176;-81
2022/01/09 01:38:47;;;;;;;3.90;1.57;;;1.90;97.30;;;;;;4998927;28;20170;-82
2022/01/09 01:41:13;;;;;;;2.17;1.60;;;1.90;97.30;;;;;;4998765;28;20594;-81
2022/01/09 01:43:38;;;;;;;2.53;1.80;;;1.90;97.30;;;;;;4998196;28;20265;-81
2022/01/09 01:46:04;;;;;;;4.07;1.77;;;1.90;97.30;;;;;;4997649;28;20182;-82
2022/01/09 01:48:30;;;;;;;2.63;1.90;;;1.90;97.30;;;;;;4998830;28;20177;-80
2022/01/09 01:50:56;;;;;;;5.90;2.27;;;1.90;97.30;;;;;;4998953;28;20198;-81
2022/01/09 01:53:24;;;;;;;3.10;1.70;;;1.90;97.30;;;;;;4998393;28;20433;-81
2022/01/09 01:55:54;;;;;;;3.80;1.70;;;1.90;97.30;;;;;;4999016;28;20540;-81
2022/01/09 01:58:20;;;;;;;4.50;1.83;;;1.90;97.30;;;;;;4998427;28;20425;-80
2022/01/09 02:00:46;;;;;;;1.63;1.53;;;1.90;97.30;;;;;;4999150;28;20472;-81
2022/01/09 02:03:11;;;;;;;5.33;1.70;;;1.90;97.30;;;;;;4997649;28;20425;-82
2022/01/09 02:05:40;;;;;;;3.87;1.70;;;1.80;97.30;;;;;;4997586;28;20927;-82
2022/01/09 02:08:07;;;;;;;2.17;1.50;;;1.80;97.30;;;;;;4997711;28;20170;-81
2022/01/09 02:10:32;;;;;;;2.77;1.67;;;1.80;97.30;;;;;;4998017;28;20483;-81
2022/01/09 02:12:58;;;;;;;2.80;1.70;;;1.80;97.30;;;;;;4998294;28;20417;-81
2022/01/09 02:15:45;;;;;;;2.50;1.87;;;1.80;97.30;;;;;;4999432;28;20185;-81
2022/01/09 02:18:14;;;;;;;2.67;1.83;;;1.70;97.30;;;;;;4999309;28;20189;-81
2022/01/09 02:20:40;;;;;;;3.57;2.13;;;1.70;97.30;;;;;;4998571;28;20471;-81
2022/01/09 02:23:08;;;;;;;3.47;1.83;;;1.70;97.30;;;;;;4998014;28;20471;-82
2022/01/09 02:25:38;;;;;;;2.57;1.90;;;1.60;97.30;;;;;;5013226;28;20416;-81
2022/01/09 02:28:05;;;;;;;5.80;2.70;;;1.60;97.30;;;;;;5008478;28;20424;-81
2022/01/09 02:30:32;;;;;;;3.67;2.13;;;1.50;97.30;;;;;;4997916;28;20413;-82
2022/01/09 02:32:59;;;;;;;1.97;1.87;;;1.50;97.30;;;;;;4998329;28;20413;-81
2022/01/09 02:35:26;;;;;;;2.80;2.23;;;1.50;97.30;;;;;;4998243;28;21113;-82
2022/01/09 02:37:52;;;;;;;2.30;2.03;;;1.50;97.30;;;;;;4998193;28;20853;-82
2022/01/09 02:40:18;;;;;;;3.13;2.10;;;1.50;97.30;;;;;;4999542;28;20453;-81
2022/01/09 02:42:43;;;;;;;2.67;2.00;;;1.50;97.30;;;;;;5012591;28;20209;-81
2022/01/09 02:45:09;;;;;;;3.60;2.13;;;1.40;97.30;;;;;;4998591;28;20199;-81
2022/01/09 02:47:36;;;;;;;3.60;2.30;;;1.40;97.30;;;;;;4997804;28;20170;-83
2022/01/09 02:50:26;;;;;;;3.50;2.00;;;1.40;97.30;;;;;;4998211;28;20424;-81
2022/01/09 02:52:59;;;;;;;5.17;2.33;;;1.40;97.30;;;;;;4995684;28;20421;-80
2022/01/09 02:55:26;;;;;;;3.80;2.00;;;1.30;97.30;;;;;;4995232;28;20852;-81
2022/01/09 02:57:54;;;;;;;2.50;2.07;;;1.30;97.30;;;;;;4995540;28;20428;-80
2022/01/09 03:00:25;;;;;;;3.40;2.47;;;1.30;97.30;;;;;;4995596;28;20460;-81
2022/01/09 03:02:51;;;;;;;3.03;1.90;;;1.30;97.30;;;;;;4995474;28;21077;-80
2022/01/09 03:05:16;;;;;;;2.40;1.83;;;1.30;97.30;;;;;;4995807;28;20433;-80
2022/01/09 03:07:43;;;;;;;5.27;2.07;;;1.30;97.30;;;;;;4996934;28;20671;-80
2022/01/09 03:10:11;;;;;;;3.70;2.03;;;1.20;97.30;;;;;;4996778;28;20690;-80
2022/01/09 03:12:38;;;;;;;2.50;1.80;;;1.20;97.30;;;;;;4997703;28;20448;-81
2022/01/09 03:15:04;;;;;;;3.73;1.90;;;1.20;97.30;;;;;;4996090;28;20524;-80
2022/01/09 03:17:30;;;;;;;4.43;2.50;;;1.10;97.30;;;;;;4995722;28;20433;-80
2022/01/09 03:19:56;;;;;;;2.60;1.93;;;1.10;97.30;;;;;;4996008;28;20942;-80
2022/01/09 03:22:21;;;;;;;2.70;1.97;;;1.10;97.30;;;;;;4995227;28;20577;-80
2022/01/09 03:24:49;;;;;;;2.60;1.90;;;1.10;97.30;;;;;;4995896;28;20205;-80
2022/01/09 03:27:15;;;;;;;3.03;2.10;;;1.10;97.30;;;;;;4995893;28;20677;-81
2022/01/09 03:29:41;;;;;;;2.77;2.10;;;1.10;97.30;;;;;;4995727;28;20421;-80
2022/01/09 03:32:08;;;;;;;1.97;1.73;;;1.10;97.30;;;;;;4995733;28;20535;-80
2022/01/09 03:34:34;;;;;;;3.90;1.87;;;1.20;97.30;;;;;;4995806;28;20459;-80
2022/01/09 03:37:00;;;;;;;3.30;2.10;;;1.20;97.30;;;;;;4995150;28;20449;-80
2022/01/09 03:39:25;;;;;;;2.80;1.80;;;1.20;97.30;;;;;;4996142;28;20212;-82
2022/01/09 03:41:51;;;;;;;2.33;1.80;;;1.20;97.30;;;;;;4997571;28;20495;-80
2022/01/09 03:44:17;;;;;;;5.30;2.10;;;1.30;97.30;;;;;;4996161;28;20268;-80
2022/01/09 03:46:42;;;;;;;3.60;2.20;;;1.30;97.30;;;;;;4996021;28;20690;-80
2022/01/09 03:49:08;;;;;;;3.20;2.40;;;1.30;97.30;;;;;;4995784;28;20173;-82
2022/01/09 03:51:36;;;;;;;4.90;2.40;;;1.40;97.30;;;;;;4996195;28;20198;-80
2022/01/09 03:54:04;;;;;;;4.47;2.20;;;1.40;97.30;;;;;;4996493;28;20236;-80
2022/01/09 03:56:30;;;;;;;3.37;2.00;;;1.40;97.30;;;;;;4996442;28;20436;-80
2022/01/09 03:58:56;;;;;;;2.77;2.10;;;1.40;97.30;;;;;;4996044;28;20433;-81
2022/01/09 04:01:21;;;;;;;6.93;2.33;;;1.50;97.30;;;;;;4996969;28;20495;-80
2022/01/09 04:03:47;;;;;;;5.80;2.40;;;1.50;97.30;;;;;;4996309;28;20590;-81
2022/01/09 04:06:13;;;;;;;2.50;1.90;;;1.50;97.30;;;;;;4996403;28;20185;-80
2022/01/09 04:08:39;;;;;;;3.73;2.03;;;1.50;97.30;;;;;;4996186;28;20174;-80
2022/01/09 04:11:06;;;;;;;7.20;2.13;;;1.50;97.30;;;;;;4996074;28;20197;-80
2022/01/09 04:13:32;;;;;;;4.33;2.40;;;1.50;97.30;;;;;;4995559;28;20960;-83
2022/01/09 04:15:59;;;;;;;2.20;1.60;;;1.50;97.30;;;;;;4996451;28;20425;-81
2022/01/09 04:18:25;;;;;;;6.27;1.73;;;1.50;97.30;;;;;;4996747;28;20439;-82
2022/01/09 04:20:51;;;;;;;2.70;2.10;;;1.50;97.30;;;;;;4997148;28;20563;-81
2022/01/09 04:23:19;;;;;;;2.90;1.90;;;1.50;97.30;;;;;;5014231;28;20462;-81
2022/01/09 04:25:46;;;;;;;2.83;2.23;;;1.50;97.30;;;;;;5014417;28;20999;-81
2022/01/09 04:28:13;;;;;;;2.30;2.20;;;1.50;97.30;;;;;;5008621;28;20421;-80
2022/01/09 04:30:39;;;;;;;4.93;2.00;;;1.50;97.30;;;;;;4994722;28;20460;-81
2022/01/09 04:33:05;;;;;;;3.10;1.70;;;1.50;97.30;;;;;;5010958;28;20897;-82
2022/01/09 04:35:30;;;;;;;5.00;2.17;;;1.50;97.30;;;;;;5014631;28;20181;-80
2022/01/09 04:37:56;;;;;;;4.03;2.30;;;1.50;97.30;;;;;;5000046;28;20193;-81
2022/01/09 04:40:22;;;;;;;3.13;2.30;;;1.50;97.30;;;;;;4994966;28;20209;-81
2022/01/09 04:42:53;;;;;;;2.07;1.73;;;1.50;97.30;;;;;;4994681;28;20813;-81
2022/01/09 04:45:20;;;;;;;3.23;2.07;;;1.50;97.30;;;;;;4994314;28;20425;-81
2022/01/09 04:47:47;;;;;;;2.83;1.73;;;1.60;97.30;;;;;;4994590;28;20417;-81
2022/01/09 04:50:22;;;;;;;2.30;1.97;;;1.60;97.30;;;;;;4994248;28;20855;-80
2022/01/09 04:52:51;;;;;;;3.43;1.90;;;1.60;97.30;;;;;;4994523;28;20484;-81
2022/01/09 04:55:16;;;;;;;4.13;2.23;;;1.60;97.30;;;;;;4995254;28;20927;-81
2022/01/09 04:57:42;;;;;;;4.00;1.93;;;1.60;97.30;;;;;;4997270;28;20756;-81
2022/01/09 05:00:09;;;;;;;3.90;2.43;;;1.60;97.30;;;;;;4994902;28;20237;-81
2022/01/09 05:02:35;;;;;;;5.77;2.33;;;1.60;97.30;;;;;;4994628;28;20441;-80
2022/01/09 05:05:01;;;;;;;6.10;2.27;;;1.70;97.30;;;;;;4995049;28;20440;-82
2022/01/09 05:07:26;;;;;;;7.43;2.43;;;1.70;97.30;;;;;;5002326;28;20432;-82
2022/01/09 05:09:52;;;;;;;2.93;1.90;;;1.70;97.30;;;;;;4998600;28;20530;-81
2022/01/09 05:12:18;;;;;;;5.67;2.10;;;1.70;97.30;;;;;;5001609;28;20217;-81
2022/01/09 05:14:43;;;;;;;2.83;2.00;;;1.70;97.30;;;;;;5002965;28;20185;-83
2022/01/09 05:17:09;;;;;;;2.83;1.60;;;1.70;97.30;;;;;;5003807;28;20251;-81
2022/01/09 05:19:36;;;;;;;4.53;2.33;;;1.70;97.30;;;;;;5002596;28;20189;-80
2022/01/09 05:22:02;;;;;;;3.73;2.00;;;1.70;97.30;;;;;;5001439;28;20225;-80
2022/01/09 05:24:28;;;;;;;4.93;2.50;;;1.70;97.30;;;;;;5000395;28;20436;-81
2022/01/09 05:26:54;;;;;;;3.07;2.00;;;1.70;97.30;;;;;;5002257;28;20433;-81
2022/01/09 05:29:21;;;;;;;2.47;2.23;;;1.70;97.30;;;;;;5020293;28;20180;-80
2022/01/09 05:31:48;;;;;;;4.83;2.23;;;1.70;97.30;;;;;;5005791;28;21060;-80
2022/01/09 05:34:14;;;;;;;2.30;2.00;;;1.70;97.30;;;;;;5000552;28;20781;-81
2022/01/09 05:36:40;;;;;;;3.37;2.10;;;1.70;97.30;;;;;;4999688;28;20417;-81
2022/01/09 05:39:06;;;;;;;6.43;2.40;;;1.80;97.30;;;;;;4999440;28;20844;-81
2022/01/09 05:41:31;;;;;;;2.50;1.70;;;1.80;97.30;;;;;;5007182;28;20538;-81
2022/01/09 05:43:57;;;;;;;3.17;2.10;;;1.80;97.30;;;;;;5000759;28;20189;-81
2022/01/09 05:46:23;;;;;;;2.80;1.93;;;1.80;97.30;;;;;;4999920;28;20186;-82
2022/01/09 05:48:48;;;;;;;3.67;2.43;;;1.80;97.30;;;;;;4999759;28;20188;-82
2022/01/09 05:51:14;;;;;;;4.27;2.50;;;1.90;97.30;;;;;;4998420;28;20242;-82
2022/01/09 05:53:40;;;;;;;3.97;2.20;;;1.90;97.30;;;;;;5000596;28;20226;-82
2022/01/09 05:56:05;;;;;;;3.47;2.20;;;1.90;97.30;;;;;;4999288;28;20546;-83
2022/01/09 05:58:33;;;;;;;2.73;1.93;;;1.90;97.30;;;;;;5001970;28;20834;-82
2022/01/09 06:00:59;;;;;;;4.57;2.70;;;2.00;97.30;;;;;;4991121;28;20209;-81
2022/01/09 06:03:25;;;;;;;2.63;1.93;;;2.00;97.30;;;;;;4997940;28;20420;-82
2022/01/09 06:05:51;;;;;;;3.17;1.90;;;2.00;97.30;;;;;;5000512;28;20177;-81
2022/01/09 06:08:17;;;;;;;2.93;2.43;;;2.00;97.30;;;;;;5000703;28;20189;-81
2022/01/09 06:10:43;;;;;;;4.43;4.13;;;2.00;97.30;;;;;;5002461;28;21052;-80
2022/01/09 06:13:08;;;;;;;3.43;1.90;;;2.00;97.30;;;;;;4998496;28;20428;-80
2022/01/09 06:15:34;;;;;;;4.53;2.30;;;2.10;97.30;;;;;;5019442;28;20467;-81
2022/01/09 06:17:59;;;;;;;3.07;2.27;;;2.10;97.30;;;;;;5002401;28;20961;-80
2022/01/09 06:20:25;;;;;;;3.90;2.70;;;2.10;97.30;;;;;;4999729;28;20229;-81
2022/01/09 06:22:51;;;;;;;6.47;2.60;;;2.10;97.30;;;;;;4997918;28;20218;-80
2022/01/09 06:25:16;;;;;;;4.67;3.00;;;2.20;97.30;;;;;;5000095;28;20189;-82
2022/01/09 06:27:42;;;;;;;3.57;2.80;;;2.20;97.30;;;;;;4999186;28;20185;-81
2022/01/09 06:30:09;;;;;;;7.17;2.90;;;2.20;97.30;;;;;;4998862;28;20201;-82
2022/01/09 06:32:35;;;;;;;2.50;2.17;;;2.20;97.30;;;;;;5012608;28;20451;-81
2022/01/09 06:35:01;;;;;;;3.20;2.27;;;2.20;97.30;;;;;;5018689;28;20909;-81
2022/01/09 06:37:27;;;;;;;5.40;3.00;;;2.20;97.30;;;;;;4999730;28;20448;-82
2022/01/09 06:39:53;;;;;;;3.60;1.83;;;2.20;97.30;;;;;;4997638;28;20456;-81
2022/01/09 06:42:18;;;;;;;3.77;2.20;;;2.20;97.30;;;;;;4997939;28;20221;-82
2022/01/09 06:44:44;;;;;;;3.80;2.40;;;2.20;97.30;;;;;;4998019;28;20182;-81
2022/01/09 06:47:09;;;;;;;5.50;2.87;;;2.10;97.30;;;;;;4997183;28;20644;-81
2022/01/09 06:49:35;;;;;;;6.13;2.83;;;2.20;97.30;;;;;;4997288;28;20652;-82
2022/01/09 06:52:02;;;;;;;3.33;2.77;;;2.10;97.30;;;;;;4998760;28;20194;-81
2022/01/09 06:54:28;;;;;;;4.90;2.50;;;2.10;97.30;;;;;;4997388;28;20186;-82
2022/01/09 06:56:53;;;;;;;5.37;2.50;;;2.10;97.30;;;;;;4997193;28;20579;-81
2022/01/09 06:59:19;;;;;;;3.00;2.57;;;2.10;97.30;;;;;;4997739;28;20188;-82
2022/01/09 07:01:45;;;;;;;4.20;2.50;;;2.10;97.30;;;;;;4997420;28;20200;-83
2022/01/09 07:04:10;;;;;;;6.17;2.27;;;2.10;97.30;;;;;;4997151;28;20174;-83
2022/01/09 07:06:36;;;;;;;5.60;3.13;;;2.10;97.30;;;;;;4997673;28;20245;-82
2022/01/09 07:09:03;;;;;;;3.57;2.27;;;2.10;97.30;;;;;;4997765;28;20182;-82
2022/01/09 07:11:29;;;;;;;5.33;2.60;;;2.10;97.30;;;;;;4997538;28;20464;-81
2022/01/09 07:13:54;;;;;;;8.00;3.03;;;2.10;97.30;;;;;;5002650;28;20438;-81
2022/01/09 07:16:20;;;;;;;4.03;2.30;;;2.10;97.30;;;;;;5000637;28;20229;-81
2022/01/09 07:18:46;;;;;;;6.80;2.80;;;2.10;97.30;;;;;;4996452;28;20182;-82
2022/01/09 07:21:12;;;;;;;5.10;3.17;;;2.00;97.30;;;;;;5001852;28;20479;-83
2022/01/09 07:23:37;;;;;;;5.70;2.70;;;2.00;97.30;;;;;;5001176;28;20303;-82
2022/01/09 07:26:03;;;;;;;3.77;2.50;;;2.00;97.30;;;;;;5010422;28;20200;-83
2022/01/09 07:28:29;;;;;;;3.70;2.63;;;2.00;97.30;;;;;;4995656;28;20185;-81
2022/01/09 07:30:55;;;;;;;3.30;2.23;;;2.00;97.30;;;;;;4994313;28;20261;-82
2022/01/09 07:33:21;;;;;;;3.70;2.50;;;2.00;97.30;;;;;;4995632;28;20197;-83
2022/01/09 07:35:46;;;;;;;6.33;2.63;;;2.00;97.30;;;;;;4995119;28;20939;-83
2022/01/09 07:38:13;;;;;;;4.90;2.30;;;2.00;97.30;;;;;;4995873;28;20184;-83
2022/01/09 07:40:39;;;;;;;6.60;3.03;;;2.00;97.30;;;;;;4996983;28;20206;-83
2022/01/09 07:43:04;;;;;;;2.23;1.83;;;2.00;97.30;;;;;;4997062;28;20536;-83
2022/01/09 07:45:30;;;;;;;4.20;2.40;;;2.00;97.30;;;;;;4996205;28;20186;-84
2022/01/09 07:48:00;;;;;;;3.27;2.57;;;2.00;97.30;;;;;;4996167;28;20197;-83
2022/01/09 07:50:27;;;;;;;4.43;2.57;;;2.00;97.30;;;;;;4996210;28;20941;-84
2022/01/09 07:52:53;;;;;;;4.77;3.67;;;2.00;97.30;;;;;;5000429;28;20456;-84
2022/01/09 07:55:20;;;;;;;7.67;3.00;;;2.00;97.30;;;;;;5004609;28;20524;-83
2022/01/09 07:57:47;;;;;;;6.33;2.40;;;2.00;97.30;;;;;;5008847;28;20420;-82
2022/01/09 08:00:14;;;;;;;3.13;2.10;;;2.00;97.30;;;;;;5018544;28;20479;-84
2022/01/09 08:02:41;;;;;;;3.97;2.40;;;2.10;97.30;;;;;;5009742;28;20974;-84
2022/01/09 08:05:07;;;;;;;4.20;2.27;;;2.10;97.30;;;;;;5007220;28;20460;-84
2022/01/09 08:07:32;;;;;;;5.13;2.63;;;2.10;97.30;;;;;;5007836;28;20424;-83
2022/01/09 08:09:58;;;;;;;4.10;2.17;;;2.10;97.30;;;;;;5002429;28;20801;-84
2022/01/09 08:12:23;;;;;;;4.87;2.10;;;2.10;97.30;;;;;;4999074;28;20216;-83
2022/01/09 08:14:49;;;;;;;5.70;2.90;;;2.20;97.30;;;;;;5012103;28;20173;-82
2022/01/09 08:17:15;;;;;;;7.60;2.93;;;2.20;97.30;;;;;;5009062;28;20182;-83
2022/01/09 08:19:41;;;;;;;3.83;2.83;;;2.20;97.30;;;;;;5005103;28;20193;-83
2022/01/09 08:22:08;;;;;;;4.73;2.70;;;2.20;97.30;;;;;;4999357;28;20684;-83
2022/01/09 08:24:36;;;;;;;6.07;2.67;;;2.20;97.30;;;;;;4984771;28;21190;-82
2022/01/09 08:27:03;;;;;;;4.30;2.50;;;2.20;97.30;;;;;;5005722;28;20428;-83
2022/01/09 08:29:28;;;;;;;3.83;2.27;;;2.20;97.30;;;;;;5003876;28;20424;-82
2022/01/09 08:31:54;;;;;;;2.97;2.37;;;2.20;97.30;;;;;;4999948;28;20539;-82
2022/01/09 08:34:20;;;;;;;5.50;2.40;;;2.30;97.30;;;;;;4996882;28;20178;-83
2022/01/09 08:36:45;;;;;;;5.57;2.57;;;2.30;97.30;;;;;;5001625;28;20190;-83
2022/01/09 08:39:11;;;;;;;3.60;2.07;;;2.30;97.30;;;;;;5007226;28;20424;-83
2022/01/09 08:41:37;;;;;;;5.20;2.60;;;2.40;97.30;;;;;;5008295;28;20601;-83
2022/01/09 08:44:05;;;;;;;4.23;2.17;;;2.40;97.30;;;;;;4999335;28;20182;-83
2022/01/09 08:46:33;;;;;;;4.90;2.60;;;2.40;97.30;;;;;;5001341;28;20417;-82
2022/01/09 08:48:59;;;;;;;4.70;2.17;;;2.50;97.30;;;;;;5003918;28;20428;-83
2022/01/09 08:51:25;;;;;;;3.83;1.90;;;2.60;97.30;;;;;;5004693;28;20445;-83
2022/01/09 08:53:51;;;;;;;3.70;2.40;;;2.60;97.30;;;;;;5005314;28;20431;-83
2022/01/09 08:56:21;;;;;;;5.60;2.83;;;2.60;97.30;;;;;;4994591;28;20428;-82
2022/01/09 08:58:47;;;;;;;4.53;2.60;;;2.60;97.30;;;;;;4997310;28;20216;-83
2022/01/09 09:01:13;;;;;;;4.53;2.30;;;2.70;97.30;;;;;;4984364;28;20470;-83
2022/01/09 09:03:41;;;;;;;3.23;2.20;;;2.70;97.30;;;;;;5010017;28;20410;-82
2022/01/09 09:06:15;;;;;;;4.03;2.57;;;2.70;97.30;;;;;;5007691;28;20268;-82
2022/01/09 09:08:42;;;;;;;5.00;2.50;;;2.80;97.30;;;;;;5005928;28;20515;-83
2022/01/09 09:11:10;;;;;;;3.60;2.47;;;2.80;97.30;;;;;;5002629;28;20551;-83
2022/01/09 09:13:37;;;;;;;3.07;2.10;;;2.90;97.30;;;;;;5008398;28;20443;-83
2022/01/09 09:16:03;;;;;;;3.93;2.20;;;2.90;97.30;;;;;;5003617;28;20493;-83
2022/01/09 09:18:29;;;;;;;2.80;1.60;;;3.00;97.30;;;;;;4999804;28;20532;-83
2022/01/09 09:20:55;;;;;;;2.63;1.60;;;3.10;97.30;;;;;;4998591;28;21024;-83
2022/01/09 09:23:21;;;;;;;2.37;1.43;;;3.30;97.30;;;;;;4996499;28;20472;-82
2022/01/09 09:25:47;;;;;;;1.93;1.30;;;3.40;97.30;;;;;;4996334;28;20408;-83
2022/01/09 09:28:13;;;;;;;2.13;1.33;;;3.50;97.30;;;;;;5001659;28;20181;-83
2022/01/09 09:30:39;;;;;;;1.83;1.23;;;3.60;97.30;;;;;;4996368;28;20441;-83
2022/01/09 09:33:05;;;;;;;6.10;1.50;;;3.70;97.30;;;;;;4997124;28;20409;-82
2022/01/09 09:35:35;;;;;;;1.27;1.20;;;3.80;97.30;;;;;;4996933;28;20436;-84
2022/01/09 09:38:01;;;;;;;1.73;1.27;;;3.90;97.30;;;;;;5002133;28;20208;-84
2022/01/09 09:40:28;;;;;;;1.23;1.17;;;4.00;97.30;;;;;;4983803;28;20515;-82
2022/01/09 09:42:54;;;;;;;1.03;0.97;;;4.00;97.30;;;;;;5007152;28;20436;-83
2022/01/09 09:45:20;;;;;;;1.10;1.00;;;4.10;97.30;;;;;;5011923;28;20506;-83
2022/01/09 09:47:46;;;;;;;1.70;1.60;;;4.10;97.30;;;;;;5004163;28;20214;-83
2022/01/09 09:50:16;;;;;;;1.10;1.00;;;4.10;97.30;;;;;;4998666;28;20429;-83
2022/01/09 09:52:43;;;;;;;1.30;1.20;;;4.20;97.30;;;;;;5011868;28;20225;-84
2022/01/09 09:55:09;;;;;;;1.23;1.20;;;4.20;97.30;;;;;;5002784;28;20433;-82
2022/01/09 09:57:35;;;;;;;1.90;1.37;;;4.20;97.30;;;;;;5007886;28;20425;-83
2022/01/09 10:00:14;;;;;;;2.07;1.40;;;4.30;97.30;;;;;;5037152;22;20562;-85
2022/01/09 10:02:52;;;;;;;2.83;1.30;;;4.30;97.30;;;;;;4992726;28;20201;-82
2022/01/09 10:05:23;;;;;;;1.77;1.40;;;4.40;97.30;;;;;;5008131;28;20416;-84
2022/01/09 10:08:04;;;;;;;1.90;1.20;;;4.50;97.30;;;;;;4999947;28;20409;-84
2022/01/09 10:10:31;;;;;;;1.17;1.07;;;4.60;97.30;;;;;;4996698;28;20433;-83
2022/01/09 10:13:07;;;;;;;1.60;1.37;;;4.70;97.30;;;;;;4995815;28;20405;-84
2022/01/09 10:15:55;;;;;;;2.10;1.20;;;4.80;97.30;;;;;;4997501;28;21069;-84
2022/01/09 10:18:47;;;;;;;1.77;1.20;;;4.90;97.30;;;;;;4995696;28;20935;-85
2022/01/09 10:21:15;;;;;;;2.13;1.50;;;5.00;97.30;;;;;;4995526;28;20452;-85
2022/01/09 10:24:08;;;;;;;1.87;1.43;;;5.00;97.30;;;;;;4996239;28;20504;-82
2022/01/09 10:26:36;;;;;;;1.60;1.30;;;5.10;97.30;;;;;;4996230;28;20981;-84
2022/01/09 10:29:06;;;;;;;1.67;1.40;;;5.00;97.30;;;;;;5007074;28;20849;-83
2022/01/09 10:31:41;;;;;;;4.83;2.80;;;5.00;97.30;;;;;;5010747;28;20424;-80
2022/01/09 10:34:08;;;;;;;9.07;3.97;;;5.00;97.30;;;;;;5005443;28;20433;-82
2022/01/09 10:36:44;;;;;;;6.50;2.87;;;5.00;97.30;;;;;;4991375;28;20812;-83
2022/01/09 10:39:17;;;;;;;14.23;5.03;;;4.90;97.30;;;;;;4997738;28;20963;-82
2022/01/09 10:41:48;;;;;;;12.50;4.80;;;4.90;97.30;;;;;;4994620;28;20436;-85
2022/01/09 10:44:20;;;;;;;5.13;2.73;;;4.90;97.30;;;;;;4974873;28;20406;-84
2022/01/09 10:46:58;;;;;;;2.27;1.93;;;4.90;97.30;;;;;;4990235;28;20427;-85
2022/01/09 10:49:35;;;;;;;5.50;2.30;;;4.90;97.30;;;;;;4994535;28;20441;-82
2022/01/09 10:52:14;;;;;;;4.90;2.33;;;4.90;97.30;;;;;;4994529;28;20479;-82
2022/01/09 10:54:42;;;;;;;8.47;3.90;;;4.90;97.30;;;;;;4994179;28;20495;-82
2022/01/09 10:57:19;;;;;;;4.80;2.83;;;4.90;97.30;;;;;;4994247;28;20413;-83
2022/01/09 10:59:46;;;;;;;1.67;1.57;;;4.90;97.30;;;;;;4994075;28;20547;-82
2022/01/09 11:02:12;;;;;;;5.60;2.37;;;4.90;97.30;;;;;;4993344;28;20425;-84
2022/01/09 11:04:40;;;;;;;2.87;2.37;;;4.90;97.30;;;;;;4994462;28;20822;-84
2022/01/09 11:07:06;;;;;;;1.57;1.53;;;4.80;97.30;;;;;;5007251;28;20440;-84
2022/01/09 11:09:33;;;;;;;2.03;1.47;;;4.80;97.30;;;;;;4993826;28;20437;-83
2022/01/09 11:11:58;;;;;;;1.43;1.33;;;4.80;97.30;;;;;;5000388;28;20452;-84
2022/01/09 11:14:26;;;;;;;2.10;1.20;;;4.80;97.30;;;;;;4994901;28;20413;-84
2022/01/09 11:16:54;;;;;;;1.90;1.47;;;4.80;97.30;;;;;;4994703;28;20648;-84
2022/01/09 11:19:25;;;;;;;1.57;1.47;;;4.80;97.30;;;;;;4995729;28;20437;-83
2022/01/09 11:22:02;;;;;;;1.83;1.77;;;4.70;97.30;;;;;;4994603;28;20528;-83
2022/01/09 11:24:57;;;;;;;3.20;2.03;;;4.70;97.30;;;;;;4994493;28;20923;-84
2022/01/09 11:27:27;;;;;;;4.13;2.20;;;4.70;97.30;;;;;;4994775;28;20437;-83
2022/01/09 11:29:57;;;;;;;1.30;1.30;;;4.80;97.30;;;;;;4995242;28;20464;-82
2022/01/09 11:32:55;;;;;;;3.30;2.23;;;4.80;97.30;;;;;;4993993;28;20429;-84
2022/01/09 11:35:50;;;;;;;2.57;2.00;;;4.70;97.30;;;;;;4978702;28;20428;-83
2022/01/09 11:38:50;;;;;;;2.67;2.50;;;4.80;97.30;;;;;;4974671;28;20417;-83
2022/01/09 11:41:21;;;;;;;1.73;1.40;;;4.80;97.30;;;;;;4992259;28;20467;-84
2022/01/09 11:44:06;;;;;;;1.60;1.50;;;4.70;97.30;;;;;;4993901;28;20428;-84
2022/01/09 11:47:02;;;;;;;2.63;1.73;;;4.60;97.30;;;;;;4993668;28;20951;-83
2022/01/09 11:49:39;;;;;;;1.50;1.50;;;4.50;97.30;;;;;;4993536;28;20437;-84
2022/01/09 11:52:05;;;;;;;2.57;1.90;;;4.50;97.30;;;;;;4994462;28;20404;-85
2022/01/09 11:54:49;;;;;;;1.87;1.50;;;4.50;97.30;;;;;;4993501;28;20405;-83
2022/01/09 11:57:20;;;;;;;3.77;2.27;;;4.50;97.30;;;;;;4993217;28;20425;-83
2022/01/09 11:59:51;;;;;;;1.57;1.30;;;4.40;97.30;;;;;;4995253;28;21038;-83
2022/01/09 12:02:16;;;;;;;2.80;2.70;;;4.40;97.30;;;;;;4993535;28;20420;-83
2022/01/09 12:04:42;;;;;;;2.97;1.97;;;4.50;97.30;;;;;;4993089;28;20417;-83
2022/01/09 12:07:41;;;;;;;4.10;2.40;;;4.50;97.30;;;;;;4991880;28;20260;-83
2022/01/09 12:10:32;;;;;;;3.23;2.10;;;4.50;97.30;;;;;;5014027;28;20188;-83
2022/01/09 12:12:58;;;;;;;2.03;1.90;;;4.50;97.30;;;;;;4988680;28;20433;-83
2022/01/09 12:15:42;;;;;;;4.57;2.40;;;4.50;97.30;;;;;;4993030;28;20417;-84
2022/01/09 12:18:44;;;;;;;3.07;2.50;;;4.40;97.30;;;;;;4973294;28;20410;-83
2022/01/09 12:21:46;;;;;;;2.83;2.30;;;4.40;97.30;;;;;;4982697;28;20463;-83
2022/01/09 12:24:40;;;;;;;2.83;2.00;;;4.40;97.30;;;;;;4993691;28;20448;-83
2022/01/09 12:27:43;;;;;;;2.20;1.97;;;4.40;97.30;;;;;;4992386;28;20413;-83
2022/01/09 12:30:30;;;;;;;2.30;1.70;;;4.30;97.30;;;;;;4993690;28;20495;-82
2022/01/09 12:32:56;;;;;;;3.40;2.13;;;4.30;97.30;;;;;;5004300;28;20425;-83
2022/01/09 12:35:22;;;;;;;2.23;1.90;;;4.40;97.30;;;;;;4990877;28;20429;-84
2022/01/09 12:38:00;;;;;;;2.50;2.30;;;4.30;97.30;;;;;;4990365;28;20415;-84
2022/01/09 12:40:28;;;;;;;2.20;2.00;;;4.40;97.30;;;;;;4989674;28;20606;-85
2022/01/09 12:42:55;;;;;;;2.23;2.03;;;4.40;97.30;;;;;;4988448;28;20440;-84
2022/01/09 12:45:23;;;;;;;1.87;1.30;;;4.40;97.30;;;;;;4989758;28;20424;-84
2022/01/09 12:47:49;;;;;;;1.47;1.37;;;4.40;97.30;;;;;;4990690;28;20417;-84
2022/01/09 12:50:15;;;;;;;1.50;1.40;;;4.40;97.30;;;;;;4989745;28;20504;-84
2022/01/09 12:52:41;;;;;;;2.30;1.83;;;4.30;97.30;;;;;;4989731;28;20424;-84
2022/01/09 12:55:10;;;;;;;3.73;2.03;;;4.30;97.30;;;;;;4989158;28;20452;-85
2022/01/09 12:57:55;;;;;;;3.60;2.27;;;4.30;97.30;;;;;;4991556;28;21025;-84
2022/01/09 13:00:26;;;;;;;3.00;1.80;;;4.30;97.30;;;;;;4990086;28;20479;-82
2022/01/09 13:02:55;;;;;;;1.47;1.40;;;4.30;97.30;;;;;;4989740;28;20409;-84
2022/01/09 13:05:26;;;;;;;3.33;1.80;;;4.30;97.30;;;;;;4990809;28;20425;-84